createdAt,value
2024-04-17T00:02:03.968Z,8.00
2024-04-17T00:04:31.408Z,8.00
2024-04-17T00:07:01.304Z,7.00
2024-04-17T00:09:28.387Z,8.00
2024-04-17T00:11:58.122Z,8.25
2024-04-17T00:14:25.233Z,9.75
2024-04-17T00:16:55.228Z,8.00
2024-04-17T00:19:22.524Z,11.25
2024-04-17T00:21:52.383Z,11.00
2024-04-17T00:24:19.505Z,11.00
2024-04-17T00:26:49.217Z,11.25
2024-04-17T00:29:16.349Z,9.50
2024-04-17T00:31:46.162Z,12.25
2024-04-17T00:34:13.286Z,11.50
2024-04-17T00:36:43.093Z,16.00
2024-04-17T00:39:10.287Z,17.25
2024-04-17T00:41:40.080Z,10.75
2024-04-17T00:44:07.212Z,17.25
2024-04-17T00:46:38.909Z,15.25
2024-04-17T00:49:06.221Z,6.75
2024-04-17T00:51:37.621Z,12.75
2024-04-17T00:54:04.844Z,11.00
2024-04-17T00:56:35.161Z,9.25
2024-04-17T00:59:02.600Z,15.25
2024-04-17T01:01:32.504Z,13.50
2024-04-17T01:03:59.654Z,15.50
2024-04-17T01:06:30.752Z,7.25
2024-04-17T01:08:57.854Z,14.25
2024-04-17T01:11:27.657Z,12.50
2024-04-17T01:13:55.925Z,11.50
2024-04-17T01:16:25.727Z,11.00
2024-04-17T01:18:52.950Z,10.25
2024-04-17T01:21:22.625Z,12.00
2024-04-17T01:23:53.754Z,11.25
2024-04-17T01:26:24.791Z,11.75
2024-04-17T01:28:51.855Z,10.25
2024-04-17T01:31:21.634Z,11.75
2024-04-17T01:33:48.690Z,5.75
2024-04-17T01:36:18.925Z,11.75
2024-04-17T01:38:46.759Z,10.00
2024-04-17T01:41:16.878Z,13.75
2024-04-17T01:43:43.946Z,11.00
2024-04-17T01:46:13.731Z,11.00
2024-04-17T01:48:40.805Z,10.00
2024-04-17T01:51:10.513Z,10.00
2024-04-17T01:53:37.541Z,9.00
2024-04-17T01:56:07.244Z,11.00
2024-04-17T01:58:34.340Z,11.00
2024-04-17T02:01:07.830Z,10.25
2024-04-17T02:03:35.028Z,9.50
2024-04-17T02:06:04.786Z,10.75
2024-04-17T02:08:31.858Z,11.25
2024-04-17T02:11:01.622Z,10.50
2024-04-17T02:13:28.785Z,11.50
2024-04-17T02:16:03.667Z,12.75
2024-04-17T02:18:30.855Z,11.25
2024-04-17T02:21:01.049Z,12.00
2024-04-17T02:23:29.940Z,9.25
2024-04-17T02:26:00.165Z,12.50
2024-04-17T02:28:27.288Z,14.00
2024-04-17T02:30:56.993Z,12.50
2024-04-17T02:33:24.089Z,11.00
2024-04-17T02:35:53.804Z,15.50
2024-04-17T02:38:20.818Z,9.25
2024-04-17T02:40:50.571Z,11.75
2024-04-17T02:43:17.696Z,13.25
2024-04-17T02:45:47.428Z,17.75
2024-04-17T02:48:14.498Z,13.50
2024-04-17T02:50:44.916Z,14.75
2024-04-17T02:53:11.940Z,12.25
2024-04-17T02:55:41.615Z,12.50
2024-04-17T02:58:08.704Z,15.50
2024-04-17T03:00:38.346Z,10.00
2024-04-17T03:03:06.227Z,12.75
2024-04-17T03:05:38.805Z,11.00
2024-04-17T03:08:06.069Z,11.75
2024-04-17T03:10:35.902Z,10.00
2024-04-17T03:13:03.083Z,15.00
2024-04-17T03:15:32.887Z,16.00
2024-04-17T03:18:00.288Z,16.00
2024-04-17T03:20:30.133Z,20.75
2024-04-17T03:22:57.300Z,23.50
2024-04-17T03:25:27.127Z,16.75
2024-04-17T03:27:55.570Z,21.75
2024-04-17T03:30:26.412Z,25.25
2024-04-17T03:32:53.656Z,24.25
2024-04-17T03:35:23.883Z,27.50
2024-04-17T03:37:53.816Z,28.25
2024-04-17T03:40:23.842Z,23.50
2024-04-17T03:42:53.704Z,20.75
2024-04-17T03:45:23.526Z,26.50
2024-04-17T03:47:53.626Z,27.50
2024-04-17T03:50:20.765Z,26.50
2024-04-17T03:52:50.697Z,29.25
2024-04-17T03:55:17.961Z,29.25
2024-04-17T03:57:47.897Z,23.00
2024-04-17T04:00:15.324Z,21.00
2024-04-17T04:02:45.190Z,32.00
2024-04-17T04:05:13.484Z,34.40
2024-04-17T04:07:43.353Z,44.00
2024-04-17T04:10:10.461Z,42.00
2024-04-17T04:12:40.224Z,36.60
2024-04-17T04:15:08.478Z,37.20
2024-04-17T04:17:38.402Z,25.75
2024-04-17T04:20:05.740Z,28.50
2024-04-17T04:22:35.581Z,28.00
2024-04-17T04:25:02.710Z,21.75
2024-04-17T04:27:32.764Z,25.25
2024-04-17T04:29:59.880Z,24.00
2024-04-17T04:32:29.736Z,23.50
2024-04-17T04:34:56.907Z,25.75
2024-04-17T04:37:27.382Z,27.00
2024-04-17T04:39:54.703Z,29.00
2024-04-17T04:42:24.519Z,26.25
2024-04-17T04:44:51.767Z,20.00
2024-04-17T04:47:21.538Z,25.75
2024-04-17T04:49:48.691Z,26.50
2024-04-17T04:52:18.490Z,25.25
2024-04-17T04:54:45.605Z,27.25
2024-04-17T04:57:15.363Z,27.50
2024-04-17T04:59:42.616Z,29.00
2024-04-17T05:02:12.422Z,32.75
2024-04-17T05:04:39.576Z,31.00
2024-04-17T05:07:09.445Z,30.25
2024-04-17T05:09:37.002Z,17.00
2024-04-17T05:12:06.983Z,26.20
2024-04-17T05:14:34.181Z,21.00
2024-04-17T05:17:04.546Z,14.50
2024-04-17T05:19:31.724Z,18.75
2024-04-17T05:22:01.507Z,21.00
2024-04-17T05:24:29.789Z,15.25
2024-04-17T05:26:59.676Z,24.25
2024-04-17T05:29:26.790Z,16.00
2024-04-17T05:31:56.790Z,19.75
2024-04-17T05:34:24.053Z,20.25
2024-04-17T05:36:54.038Z,19.50
2024-04-17T05:39:21.243Z,16.50
2024-04-17T05:41:51.078Z,17.50
2024-04-17T05:44:18.134Z,17.50
2024-04-17T05:46:48.688Z,17.25
2024-04-17T05:49:16.944Z,21.25
2024-04-17T05:51:46.779Z,17.25
2024-04-17T05:54:14.014Z,22.25
2024-04-17T05:56:43.802Z,22.75
2024-04-17T05:59:10.887Z,22.50
2024-04-17T06:01:44.083Z,19.25
2024-04-17T06:04:12.042Z,21.75
2024-04-17T06:06:41.883Z,18.50
2024-04-17T06:09:09.054Z,17.50
2024-04-17T06:11:38.845Z,20.50
2024-04-17T06:14:09.353Z,20.00
2024-04-17T06:16:39.541Z,19.50
2024-04-17T06:19:06.692Z,23.00
2024-04-17T06:21:36.438Z,21.50
2024-04-17T06:24:03.787Z,15.75
2024-04-17T06:26:33.676Z,21.50
2024-04-17T06:29:00.805Z,23.00
2024-04-17T06:31:31.586Z,21.25
2024-04-17T06:33:58.905Z,18.00
2024-04-17T06:36:28.780Z,17.75
2024-04-17T06:38:56.164Z,21.75
2024-04-17T06:41:28.636Z,22.75
2024-04-17T06:43:59.711Z,24.25
2024-04-17T06:46:29.561Z,26.25
2024-04-17T06:48:57.081Z,23.00
2024-04-17T06:51:26.848Z,24.00
2024-04-17T06:58:39.823Z,23.50
2024-04-17T07:01:07.289Z,22.00
2024-04-17T07:03:37.214Z,23.25
2024-04-17T07:06:05.451Z,15.25
2024-04-17T07:08:35.685Z,20.75
2024-04-17T07:11:02.903Z,9.50
2024-04-17T07:13:32.897Z,18.00
2024-04-17T07:16:00.099Z,22.00
2024-04-17T07:18:30.715Z,22.75
2024-04-17T07:20:57.887Z,26.25
2024-04-17T07:23:27.687Z,20.75
2024-04-17T07:25:54.926Z,24.00
2024-04-17T07:28:25.951Z,21.00
2024-04-17T07:30:53.070Z,22.00
2024-04-17T07:33:22.856Z,26.75
2024-04-17T07:35:58.250Z,27.00
2024-04-17T07:38:29.702Z,22.00
2024-04-17T07:40:58.219Z,28.50
2024-04-17T07:43:32.089Z,25.00
2024-04-17T07:45:59.840Z,28.50
2024-04-17T07:48:29.743Z,27.25
2024-04-17T07:50:56.943Z,29.25
2024-04-17T07:53:26.696Z,25.00
2024-04-17T07:55:55.010Z,29.00
2024-04-17T07:58:24.791Z,25.50
2024-04-17T08:00:51.882Z,29.00
2024-04-17T08:03:21.797Z,33.75
2024-04-17T08:05:48.988Z,31.25
2024-04-17T08:08:18.734Z,32.25
2024-04-17T08:10:45.974Z,27.75
2024-04-17T08:13:17.064Z,27.75
2024-04-17T08:15:45.364Z,31.75
2024-04-17T08:18:16.173Z,28.00
2024-04-17T08:20:43.354Z,31.25
2024-04-17T08:23:13.213Z,34.75
2024-04-17T08:25:43.460Z,34.00
2024-04-17T08:28:13.909Z,33.00
2024-04-17T08:30:41.011Z,30.50
2024-04-17T08:33:10.885Z,34.75
2024-04-17T08:35:38.453Z,32.75
2024-04-17T08:38:08.767Z,32.75
2024-04-17T08:40:38.071Z,32.00
2024-04-17T08:43:08.228Z,32.50
2024-04-17T08:45:44.558Z,32.75
2024-04-17T08:48:20.694Z,33.75
2024-04-17T08:50:48.030Z,36.25
2024-04-17T08:53:21.610Z,35.00
2024-04-17T08:55:49.532Z,36.40
2024-04-17T08:58:20.132Z,37.50
2024-04-17T09:00:53.693Z,38.00
2024-04-17T09:03:27.123Z,39.25
2024-04-17T09:05:56.793Z,42.60
2024-04-17T09:08:28.254Z,37.00
2024-04-17T09:10:56.638Z,35.50
2024-04-17T09:13:27.156Z,36.60
2024-04-17T09:15:54.593Z,38.20
2024-04-17T09:18:34.905Z,37.60
2024-04-17T09:21:02.148Z,35.40
2024-04-17T09:23:32.127Z,34.00
2024-04-17T09:26:00.035Z,36.00
2024-04-17T09:28:30.366Z,32.60
2024-04-17T09:30:57.544Z,36.75
2024-04-17T09:33:28.680Z,36.40
2024-04-17T09:36:02.931Z,37.50
2024-04-17T09:38:32.673Z,36.25
2024-04-17T09:41:00.331Z,37.75
2024-04-17T09:43:31.400Z,36.00
2024-04-17T09:46:02.202Z,36.00
2024-04-17T09:48:33.233Z,36.40
2024-04-17T09:51:04.979Z,39.80
2024-04-17T09:53:41.503Z,37.00
2024-04-17T09:56:10.647Z,33.00
2024-04-17T09:58:44.268Z,33.00
2024-04-17T10:01:17.309Z,35.25
2024-04-17T10:03:47.768Z,30.50
2024-04-17T10:06:14.995Z,35.00
2024-04-17T10:08:45.454Z,32.25
2024-04-17T10:11:12.802Z,36.25
2024-04-17T10:13:43.392Z,39.00
2024-04-17T10:16:12.998Z,36.25
2024-04-17T10:18:44.227Z,35.25
2024-04-17T10:21:25.049Z,36.25
2024-04-17T10:24:04.503Z,29.75
2024-04-17T10:26:48.057Z,38.00
2024-04-17T10:29:21.602Z,30.75
2024-04-17T10:31:58.032Z,30.00
2024-04-17T10:34:29.851Z,34.75
2024-04-17T10:37:01.988Z,32.75
2024-04-17T10:39:33.753Z,34.25
2024-04-17T10:42:01.550Z,25.50
2024-04-17T10:44:31.632Z,29.00
2024-04-17T10:47:04.459Z,25.00
2024-04-17T10:49:41.612Z,25.00
2024-04-17T10:52:09.043Z,29.25
2024-04-17T10:54:39.392Z,28.75
2024-04-17T10:57:07.594Z,28.00
2024-04-17T10:59:37.804Z,26.75
2024-04-17T11:02:05.005Z,33.25
2024-04-17T11:04:34.825Z,29.25
2024-04-17T11:07:02.060Z,31.00
2024-04-17T11:09:31.884Z,35.00
2024-04-17T11:11:59.035Z,28.75
2024-04-17T11:14:28.859Z,30.50
2024-04-17T11:16:57.706Z,31.75
2024-04-17T11:19:27.784Z,33.75
2024-04-17T11:21:58.326Z,25.50
2024-04-17T11:24:28.100Z,28.50
2024-04-17T11:26:55.239Z,34.75
2024-04-17T11:29:33.483Z,29.00
2024-04-17T11:32:07.844Z,35.00
2024-04-17T11:34:37.773Z,34.75
2024-04-17T11:37:05.900Z,33.50
2024-04-17T11:39:38.520Z,32.75
2024-04-17T11:42:08.607Z,37.00
2024-04-17T11:44:42.212Z,34.75
2024-04-17T11:47:13.069Z,30.00
2024-04-17T11:49:42.962Z,32.00
2024-04-17T11:52:12.638Z,31.00
2024-04-17T11:54:42.788Z,31.75
2024-04-17T11:57:13.477Z,34.50
2024-04-17T11:59:46.284Z,34.50
2024-04-17T12:02:13.435Z,33.25
2024-04-17T12:04:44.516Z,34.00
2024-04-17T12:07:12.045Z,31.25
2024-04-17T12:09:41.802Z,32.00
2024-04-17T12:12:09.036Z,33.00
2024-04-17T12:14:38.904Z,34.25
2024-04-17T12:17:06.316Z,30.50
2024-04-17T12:19:36.108Z,33.00
2024-04-17T12:22:03.809Z,31.00
2024-04-17T12:24:47.035Z,30.25
2024-04-17T12:27:17.367Z,31.75
2024-04-17T12:29:47.162Z,29.00
2024-04-17T12:32:16.973Z,28.00
2024-04-17T12:34:46.800Z,31.00
2024-04-17T12:37:17.264Z,28.75
2024-04-17T12:39:47.018Z,30.75
2024-04-17T12:42:19.021Z,24.00
2024-04-17T12:44:46.132Z,27.50
2024-04-17T12:47:15.954Z,33.00
2024-04-17T12:49:43.120Z,22.75
2024-04-17T12:52:13.564Z,23.75
2024-04-17T12:54:40.814Z,27.00
2024-04-17T12:57:11.180Z,27.25
2024-04-17T12:59:38.288Z,27.75
2024-04-17T13:02:14.534Z,26.50
2024-04-17T13:04:47.897Z,31.00
2024-04-17T13:07:18.294Z,27.75
2024-04-17T13:09:45.434Z,24.00
2024-04-17T13:12:15.285Z,27.00
2024-04-17T13:14:42.515Z,24.25
2024-04-17T13:17:12.319Z,32.25
2024-04-17T13:19:39.513Z,24.00
2024-04-17T13:22:09.399Z,27.00
2024-04-17T13:24:36.789Z,29.75
2024-04-17T13:27:06.993Z,27.00
2024-04-17T13:29:34.156Z,27.50
2024-04-17T13:32:04.203Z,27.50
2024-04-17T13:34:32.089Z,20.75
2024-04-17T13:37:02.099Z,27.50
2024-04-17T13:39:29.651Z,29.25
2024-04-17T13:41:59.805Z,29.25
2024-04-17T13:44:27.028Z,19.75
2024-04-17T13:46:58.165Z,24.25
2024-04-17T13:49:25.247Z,28.25
2024-04-17T13:51:55.107Z,23.00
2024-04-17T13:54:22.265Z,25.25
2024-04-17T13:56:52.216Z,34.25
2024-04-17T13:59:19.369Z,26.50
2024-04-17T14:01:57.668Z,27.25
2024-04-17T14:04:24.904Z,27.25
2024-04-17T14:06:57.844Z,29.50
2024-04-17T14:09:25.331Z,24.25
2024-04-17T14:11:55.766Z,22.00
2024-04-17T14:14:22.940Z,24.25
2024-04-17T14:16:52.724Z,25.50
2024-04-17T14:19:20.079Z,24.50
2024-04-17T14:21:49.874Z,27.25
2024-04-17T14:24:17.315Z,24.25
2024-04-17T14:26:47.092Z,29.50
2024-04-17T14:29:14.194Z,26.25
2024-04-17T14:31:43.951Z,24.75
2024-04-17T14:34:11.265Z,26.75
2024-04-17T14:36:41.092Z,25.25
2024-04-17T14:39:08.746Z,25.25
2024-04-17T14:41:38.732Z,20.25
2024-04-17T14:44:05.963Z,28.00
2024-04-17T14:46:35.914Z,17.75
2024-04-17T14:49:03.209Z,25.75
2024-04-17T14:51:33.433Z,27.75
2024-04-17T14:54:00.598Z,26.00
2024-04-17T14:56:30.470Z,22.00
2024-04-17T14:58:58.530Z,26.75
2024-04-17T15:01:28.428Z,30.00
2024-04-17T15:03:55.893Z,29.25
2024-04-17T15:06:25.829Z,28.75
2024-04-17T15:08:53.035Z,23.50
2024-04-17T15:11:22.841Z,28.50
2024-04-17T15:13:50.272Z,27.75
2024-04-17T15:16:20.093Z,27.75
2024-04-17T15:18:47.337Z,28.75
2024-04-17T15:21:18.596Z,28.50
2024-04-17T15:23:46.847Z,19.50
2024-04-17T15:26:17.497Z,27.00
2024-04-17T15:28:45.037Z,23.50
2024-04-17T15:31:17.007Z,25.25
2024-04-17T15:33:45.694Z,32.25
2024-04-17T15:36:17.276Z,27.50
2024-04-17T15:38:44.780Z,24.50
2024-04-17T15:41:14.839Z,24.50
2024-04-17T15:43:43.958Z,24.75
2024-04-17T15:46:14.397Z,27.75
2024-04-17T15:48:42.001Z,27.25
2024-04-17T15:51:12.953Z,24.00
2024-04-17T15:53:40.775Z,28.00
2024-04-17T15:56:20.755Z,25.75
2024-04-17T15:58:48.477Z,28.50
2024-04-17T16:01:19.060Z,33.25
2024-04-17T16:03:50.615Z,30.50
2024-04-17T16:06:23.556Z,24.75
2024-04-17T16:08:52.196Z,29.75
2024-04-17T16:11:23.511Z,26.00
2024-04-17T16:13:51.337Z,23.25
2024-04-17T16:16:23.043Z,28.00
2024-04-17T16:18:50.311Z,30.75
2024-04-17T16:21:22.503Z,30.75
2024-04-17T16:23:49.788Z,26.50
2024-04-17T16:26:20.378Z,21.75
2024-04-17T16:28:48.214Z,31.50
2024-04-17T16:31:21.922Z,29.50
2024-04-17T16:33:50.601Z,29.50
2024-04-17T16:36:21.178Z,28.75
2024-04-17T16:38:49.167Z,30.25
2024-04-17T16:41:20.150Z,31.00
2024-04-17T16:43:47.373Z,29.75
2024-04-17T16:46:17.933Z,27.75
2024-04-17T16:48:45.216Z,32.75
2024-04-17T16:51:15.476Z,33.50
2024-04-17T16:53:42.919Z,28.25
2024-04-17T16:56:12.997Z,31.00
2024-04-17T16:58:41.476Z,29.75
2024-04-17T17:01:11.703Z,31.00
2024-04-17T17:03:39.522Z,29.50
2024-04-17T17:06:11.118Z,31.00
2024-04-17T17:08:38.826Z,30.75
2024-04-17T17:11:09.338Z,25.75
2024-04-17T17:13:36.707Z,27.00
2024-04-17T17:16:07.951Z,31.50
2024-04-17T17:18:35.764Z,29.50
2024-04-17T17:21:13.866Z,34.50
2024-04-17T17:23:41.111Z,32.25
2024-04-17T17:26:16.724Z,35.25
2024-04-17T17:28:44.347Z,33.25
2024-04-17T17:31:17.765Z,32.00
2024-04-17T17:33:45.677Z,35.50
2024-04-17T17:36:15.767Z,32.75
2024-04-17T17:38:44.008Z,33.00
2024-04-17T17:41:20.376Z,33.25
2024-04-17T17:43:49.138Z,32.75
2024-04-17T17:46:20.253Z,28.50
2024-04-17T17:48:50.075Z,27.25
2024-04-17T17:51:21.770Z,32.00
2024-04-17T17:53:49.620Z,29.50
2024-04-17T17:56:20.962Z,31.00
2024-04-17T17:58:49.087Z,33.00
2024-04-17T18:01:21.051Z,28.50
2024-04-17T18:03:49.148Z,32.00
2024-04-17T18:06:19.815Z,34.25
2024-04-17T18:08:47.296Z,33.50
2024-04-17T18:11:36.693Z,32.75
2024-04-17T18:14:09.348Z,34.75
2024-04-17T18:16:36.978Z,33.25
2024-04-17T18:19:07.233Z,30.50
2024-04-17T18:21:34.548Z,34.00
2024-04-17T18:24:04.881Z,34.25
2024-04-17T18:26:32.132Z,30.00
2024-04-17T18:29:01.926Z,34.75
2024-04-17T18:31:29.417Z,34.75
2024-04-17T18:33:59.497Z,35.25
2024-04-17T18:36:30.313Z,33.00
2024-04-17T18:39:19.104Z,34.00
2024-04-17T18:41:46.292Z,35.00
2024-04-17T18:44:17.229Z,32.75
2024-04-17T18:46:47.630Z,35.25
2024-04-17T18:49:17.712Z,36.00
2024-04-17T18:51:45.968Z,38.00
2024-04-17T18:54:15.995Z,34.75
2024-04-17T18:56:43.339Z,34.25
2024-04-17T18:59:13.388Z,34.50
2024-04-17T19:01:40.597Z,34.75
2024-04-17T19:04:10.663Z,38.00
2024-04-17T19:06:38.148Z,39.40
2024-04-17T19:09:08.065Z,38.00
2024-04-17T19:11:35.306Z,38.00
2024-04-17T19:14:05.246Z,39.25
2024-04-17T19:16:32.435Z,37.20
2024-04-17T19:19:02.551Z,41.20
2024-04-17T19:21:29.716Z,42.00
2024-04-17T19:23:59.545Z,40.80
2024-04-17T19:26:27.003Z,42.00
2024-04-17T19:28:56.873Z,41.40
2024-04-17T19:31:24.045Z,42.00
2024-04-17T19:33:54.135Z,39.80
2024-04-17T19:36:41.154Z,44.20
2024-04-17T19:39:11.651Z,44.80
2024-04-17T19:41:38.830Z,47.60
2024-04-17T19:44:10.701Z,44.20
2024-04-17T19:46:37.911Z,43.40
2024-04-17T19:49:08.337Z,44.40
2024-04-17T19:51:35.664Z,43.80
2024-04-17T19:54:05.594Z,47.00
2024-04-17T19:56:32.749Z,47.20
2024-04-17T19:59:02.553Z,43.80
2024-04-17T20:01:29.736Z,40.40
2024-04-17T20:03:59.790Z,41.60
2024-04-17T20:06:46.012Z,41.80
2024-04-17T20:09:15.861Z,41.60
2024-04-17T20:11:43.009Z,42.40
2024-04-17T20:14:31.358Z,41.00
2024-04-17T20:16:58.884Z,43.00
2024-04-17T20:19:28.738Z,42.40
2024-04-17T20:21:55.851Z,42.80
2024-04-17T20:24:25.685Z,38.20
2024-04-17T20:26:52.886Z,42.00
2024-04-17T20:29:22.651Z,33.60
2024-04-17T20:31:49.768Z,39.60
2024-04-17T20:34:21.786Z,41.20
2024-04-17T20:36:50.460Z,38.40
2024-04-17T20:39:20.305Z,43.80
2024-04-17T20:41:47.421Z,39.60
2024-04-17T20:44:17.264Z,35.60
2024-04-17T20:46:44.370Z,39.80
2024-04-17T20:49:14.250Z,39.00
2024-04-17T20:51:43.327Z,43.80
2024-04-17T20:54:16.784Z,40.40
2024-04-17T20:56:43.961Z,42.80
2024-04-17T20:59:29.442Z,44.40
2024-04-17T21:01:59.291Z,23.60
2024-04-17T21:04:26.548Z,39.60
2024-04-17T21:06:56.484Z,44.80
2024-04-17T21:09:23.678Z,42.20
2024-04-17T21:11:55.624Z,47.20
2024-04-17T21:14:22.942Z,44.00
2024-04-17T21:16:52.755Z,43.40
2024-04-17T21:19:20.048Z,45.00
2024-04-17T21:21:49.936Z,47.20
2024-04-17T21:24:17.165Z,49.20
2024-04-17T21:26:47.119Z,51.20
2024-04-17T21:29:16.259Z,52.20
2024-04-17T21:31:46.042Z,46.00
2024-04-17T21:34:13.283Z,49.00
2024-04-17T21:36:43.132Z,46.00
2024-04-17T21:39:10.332Z,47.80
2024-04-17T21:41:40.090Z,46.20
2024-04-17T21:44:07.299Z,43.80
2024-04-17T21:46:37.084Z,44.80
2024-04-17T21:49:04.545Z,49.40
2024-04-17T21:51:34.373Z,48.00
2024-04-17T21:54:01.497Z,47.80
2024-04-17T21:56:31.497Z,47.80
2024-04-17T21:59:00.276Z,43.20
2024-04-17T22:01:31.820Z,49.40
2024-04-17T22:03:59.138Z,44.00
2024-04-17T22:06:28.981Z,46.60
2024-04-17T22:08:56.120Z,46.80
2024-04-17T22:11:25.902Z,46.00
2024-04-17T22:13:53.084Z,44.40
2024-04-17T22:16:23.037Z,48.00
2024-04-17T22:18:50.405Z,41.80
2024-04-17T22:21:20.295Z,38.00
2024-04-17T22:23:47.407Z,42.00
2024-04-17T22:26:19.201Z,38.40
2024-04-17T22:28:46.441Z,45.00
2024-04-17T22:31:32.223Z,44.20
2024-04-17T22:34:02.063Z,39.40
2024-04-17T22:36:29.250Z,40.60
2024-04-17T22:38:59.183Z,41.80
2024-04-17T22:41:26.562Z,46.80
2024-04-17T22:43:56.318Z,43.20
2024-04-17T22:46:23.486Z,42.00
2024-04-17T22:48:53.353Z,47.20
2024-04-17T22:51:20.564Z,51.00
2024-04-17T22:53:50.410Z,49.20
2024-04-17T22:56:17.469Z,47.40
2024-04-17T22:58:50.810Z,43.60
2024-04-17T23:01:18.164Z,45.80
2024-04-17T23:03:48.251Z,42.00
2024-04-17T23:06:15.417Z,46.00
2024-04-17T23:08:45.184Z,45.60
2024-04-17T23:11:12.291Z,42.80
2024-04-17T23:13:42.182Z,42.40
2024-04-17T23:16:09.493Z,44.60
2024-04-17T23:18:39.291Z,42.60
2024-04-17T23:21:06.371Z,45.60
2024-04-17T23:23:36.257Z,46.80
2024-04-17T23:26:03.369Z,42.20
2024-04-17T23:28:33.146Z,40.40
2024-04-17T23:31:00.305Z,48.00
2024-04-17T23:33:30.220Z,43.60
2024-04-17T23:35:59.394Z,51.60
2024-04-17T23:38:29.193Z,46.20
2024-04-17T23:40:59.586Z,40.00
2024-04-17T23:43:29.387Z,43.40
2024-04-17T23:45:56.636Z,42.60
2024-04-17T23:48:26.483Z,45.80
2024-04-17T23:50:53.654Z,35.80
2024-04-17T23:53:23.403Z,36.80
2024-04-17T23:55:50.515Z,42.00
2024-04-17T23:58:20.351Z,41.80
